Portada
METAR-TAF:

METAR-TAF

Aeroports :

Salamanca, Espanya

latitud: 40-57N, longitud: 005-30W, altitud: 793 m

Observació

L'informe es va fer fa 1 hora i 1 minuts, a les 18:30 UTC
Vent calma
Temperatura 22°C
Humitat 50%
Pressió 1022 hPa
Visibilitat 10 km o més

METAR: LESA 211830Z AUTO 00000KT 9999 NCD 22/11 Q1022

Hora: 21:31 (19:31 UTC)

Pronòstic

L'informe es va fer fa 8 hores i 31 minuts, a les 11:00 UTC
Pronòstic vàlid del 21 a les 12 UTC al 22 a les 12 UTC
Vent 4 kt amb direcció variable
Visibilitat 10 km o més
sense núvols per sota de 1500 mi sense presència de cumulonimbus.
Probabilitat 30% :
Temporalment
l' 21 a les 12 UTC al 21 a les 18 UTC
Escasses núvols a una alçada de 5000 ft, Cumulus congestus.
Probabilitat 30% :
Temporalment
l' 22 a les 03 UTC al 22 a les 07 UTC
Visibilitat: 3000 m
boirina

TAF: LESA 211100Z 2112/2212 VRB04KT CAVOK TX30/2115Z TN11/2206Z PROB30 TEMPO 2112/2118 FEW050TCU PROB30 TEMPO 2203/2207 3000 BR

Observacions i pronòstics meteorològics de més de 4000 aeroports (METAR i TAF).

Les estacions disponibles són els punts grocs i vermells al mapa.

Posi el ratolí al punt desitjat per veure el nom de l'estació.

Feu clic per veure les observacions i els pronòstics meteorològics.

Per canviar el mapa: feu clic els botons verds amb una creu de color negre per apropar; al botó verd amb un guió per allunyar la imatge; o en les fletxes verdes per a mapes adjacents.


METAR-TAF: